< < Back
Terminal Aerodrome Forecast


Current Version              Previous Versions:   1  2  3  4  5  6  7  8  9  

Terminal Aerodrome Forecast

786
FTUS44 KBMX 221900 AAB
TAFMGM
TAF AMD
KMGM 221926Z 2219/2318 10008KT 5SM SHRA BR VCTS OVC004CB
     FM221930 10007KT 2SM TSRA OVC008CB
     FM222030 13008KT P6SM VCSH OVC007
     FM230400 15005KT 3SM BR OVC003
     FM231700 16010KT P6SM OVC015=

Latest METAR

878
SAUS80 KWBC 222300 RRB
MTRMGM
METAR KMGM 222253Z 09008KT 10SM OVC006 12/11 A2983 RMK AO2 TSB30E45RAE25
SLP099 P0004 T01220111


USA.gov is the U.S. government's official web portal to all federal, state and local government web resources and services.